RYR9HK LOWW-LDDU
Flight info
| Callsign | RYR9HK |
|---|---|
| Flight time | 1h 0m |
| Altitude | 37000 |
| Route | STEIN DCT NOHAT DCT KOPRY DCT NETKO |
| Aircraft | A320/M-SDE3FGHIRWY/LB1 |
Departure
| Time | 2026-04-24 14:58 |
|---|---|
| Airport | Vienna International Airport (LOWW) |
Arrival
| Time | 2026-04-24 15:58 |
|---|---|
| Airport | Dubrovnik Ruđer Bošković Airport (LDDU) |
| Time | Latitude | Longitude | Altitude | Speed | Heading |
|---|---|---|---|---|---|
| 2026-04-24 14:38 | 48.12018 | 16.55610 | 599 ft | 0 kts | 112° |
| 2026-04-24 14:47 | 48.12022 | 16.55596 | 599 ft | 3 kts | 121° |
| 2026-04-24 14:48 | 48.12030 | 16.55574 | 599 ft | 3 kts | 122° |
| 2026-04-24 14:48 | 48.12042 | 16.55553 | 599 ft | 3 kts | 155° |
| 2026-04-24 14:48 | 48.12060 | 16.55546 | 598 ft | 3 kts | 188° |
| 2026-04-24 14:48 | 48.12078 | 16.55553 | 597 ft | 2 kts | 204° |
| 2026-04-24 14:49 | 48.12084 | 16.55558 | 597 ft | 1 kts | 204° |
| 2026-04-24 14:51 | 48.12082 | 16.55556 | 596 ft | 2 kts | 204° |
| 2026-04-24 14:52 | 48.12031 | 16.55521 | 600 ft | 11 kts | 205° |
| 2026-04-24 14:52 | 48.11957 | 16.55467 | 619 ft | 13 kts | 206° |
| 2026-04-24 14:52 | 48.11882 | 16.55495 | 610 ft | 14 kts | 118° |
| 2026-04-24 14:52 | 48.11835 | 16.55640 | 613 ft | 17 kts | 116° |
| 2026-04-24 14:53 | 48.11785 | 16.55793 | 614 ft | 15 kts | 116° |
| 2026-04-24 14:53 | 48.11733 | 16.55952 | 613 ft | 19 kts | 116° |
| 2026-04-24 14:53 | 48.11671 | 16.56149 | 622 ft | 17 kts | 114° |
| 2026-04-24 14:53 | 48.11614 | 16.56322 | 621 ft | 20 kts | 116° |
| 2026-04-24 14:54 | 48.11571 | 16.56449 | 611 ft | 13 kts | 117° |
| 2026-04-24 14:54 | 48.11521 | 16.56596 | 622 ft | 18 kts | 116° |
| 2026-04-24 14:54 | 48.11465 | 16.56774 | 624 ft | 21 kts | 115° |
| 2026-04-24 14:54 | 48.11396 | 16.56985 | 623 ft | 24 kts | 116° |
| 2026-04-24 14:55 | 48.11345 | 16.57144 | 620 ft | 27 kts | 116° |
| 2026-04-24 14:55 | 48.11220 | 16.57524 | 618 ft | 34 kts | 116° |
| 2026-04-24 14:55 | 48.11116 | 16.57838 | 615 ft | 35 kts | 116° |
| 2026-04-24 14:55 | 48.10993 | 16.57945 | 611 ft | 16 kts | 185° |
| 2026-04-24 14:56 | 48.10979 | 16.57901 | 613 ft | 5 kts | 273° |
| 2026-04-24 14:56 | 48.11011 | 16.57847 | 625 ft | 12 kts | 315° |
| 2026-04-24 14:56 | 48.11066 | 16.57724 | 618 ft | 16 kts | 295° |
| 2026-04-24 14:56 | 48.11105 | 16.57563 | 621 ft | 9 kts | 262° |
| 2026-04-24 14:57 | 48.11053 | 16.57502 | 622 ft | 11 kts | 204° |
| 2026-04-24 14:57 | 48.10974 | 16.57448 | 628 ft | 15 kts | 204° |
| 2026-04-24 14:57 | 48.10970 | 16.57382 | 631 ft | 9 kts | 295° |
| 2026-04-24 14:57 | 48.11062 | 16.57089 | 627 ft | 80 kts | 295° |
| 2026-04-24 14:58 | 48.11453 | 16.55848 | 695 ft | 170 kts | 294° |
| 2026-04-24 14:58 | 48.11962 | 16.54193 | 1880 ft | 185 kts | 291° |
| 2026-04-24 14:58 | 48.11955 | 16.52140 | 2664 ft | 221 kts | 252° |
| 2026-04-24 14:58 | 48.10981 | 16.50182 | 3467 ft | 254 kts | 227° |
| 2026-04-24 14:59 | 48.09562 | 16.48458 | 4707 ft | 264 kts | 220° |
| 2026-04-24 14:59 | 48.07906 | 16.47166 | 5976 ft | 280 kts | 195° |
| 2026-04-24 14:59 | 48.05933 | 16.47179 | 7187 ft | 290 kts | 175° |
| 2026-04-24 14:59 | 48.03925 | 16.47617 | 8378 ft | 297 kts | 173° |
| 2026-04-24 15:00 | 48.01838 | 16.48111 | 9553 ft | 305 kts | 173° |
| 2026-04-24 15:00 | 47.99700 | 16.48567 | 10448 ft | 321 kts | 178° |
| 2026-04-24 15:00 | 47.97431 | 16.48460 | 10972 ft | 343 kts | 191° |
| 2026-04-24 15:00 | 47.95021 | 16.47530 | 11468 ft | 362 kts | 204° |
| 2026-04-24 15:01 | 47.92692 | 16.46065 | 12266 ft | 373 kts | 202° |
| 2026-04-24 15:01 | 47.90092 | 16.45552 | 13166 ft | 386 kts | 176° |
| 2026-04-24 15:01 | 47.87441 | 16.46376 | 14101 ft | 392 kts | 166° |
| 2026-04-24 15:01 | 47.84766 | 16.47363 | 14947 ft | 397 kts | 166° |
| 2026-04-24 15:02 | 47.82071 | 16.48312 | 15781 ft | 401 kts | 167° |
| 2026-04-24 15:02 | 47.79320 | 16.49224 | 16626 ft | 406 kts | 168° |
| 2026-04-24 15:02 | 47.76543 | 16.50100 | 17456 ft | 411 kts | 168° |
| 2026-04-24 15:02 | 47.73757 | 16.50952 | 18350 ft | 415 kts | 168° |
| 2026-04-24 15:03 | 47.71831 | 16.51535 | 18875 ft | 419 kts | 169° |
| 2026-04-24 15:03 | 47.68025 | 16.52688 | 19938 ft | 425 kts | 169° |
| 2026-04-24 15:03 | 47.65154 | 16.53567 | 20740 ft | 430 kts | 168° |
| 2026-04-24 15:03 | 47.62203 | 16.54483 | 21542 ft | 433 kts | 168° |
| 2026-04-24 15:04 | 47.59258 | 16.55397 | 22272 ft | 437 kts | 168° |
| 2026-04-24 15:04 | 47.56279 | 16.56323 | 22952 ft | 441 kts | 169° |
| 2026-04-24 15:04 | 47.53258 | 16.57262 | 23644 ft | 445 kts | 168° |
| 2026-04-24 15:04 | 47.50220 | 16.58205 | 24224 ft | 448 kts | 168° |
| 2026-04-24 15:05 | 47.47218 | 16.59135 | 24747 ft | 452 kts | 168° |
| 2026-04-24 15:05 | 47.44117 | 16.60094 | 25247 ft | 456 kts | 168° |
| 2026-04-24 15:05 | 47.41032 | 16.61043 | 25823 ft | 457 kts | 168° |
| 2026-04-24 15:05 | 47.37904 | 16.62003 | 26397 ft | 460 kts | 168° |
| 2026-04-24 15:06 | 47.34753 | 16.62971 | 26939 ft | 463 kts | 167° |
| 2026-04-24 15:06 | 47.31571 | 16.63949 | 27463 ft | 466 kts | 167° |
| 2026-04-24 15:06 | 47.28396 | 16.64924 | 27969 ft | 469 kts | 167° |
| 2026-04-24 15:06 | 47.26277 | 16.65573 | 28302 ft | 471 kts | 167° |
| 2026-04-24 15:07 | 47.23049 | 16.66560 | 28789 ft | 475 kts | 167° |
| 2026-04-24 15:07 | 47.18725 | 16.67881 | 29427 ft | 478 kts | 167° |
| 2026-04-24 15:07 | 47.16511 | 16.68557 | 29740 ft | 480 kts | 167° |
| 2026-04-24 15:07 | 47.13247 | 16.69548 | 30244 ft | 481 kts | 167° |
| 2026-04-24 15:08 | 47.10037 | 16.70523 | 30724 ft | 481 kts | 167° |
| 2026-04-24 15:08 | 47.06713 | 16.71531 | 31246 ft | 481 kts | 167° |
| 2026-04-24 15:08 | 47.03511 | 16.72502 | 31747 ft | 482 kts | 167° |
| 2026-04-24 15:08 | 47.00181 | 16.73509 | 32285 ft | 482 kts | 167° |
| 2026-04-24 15:09 | 46.96865 | 16.74513 | 32820 ft | 482 kts | 166° |
| 2026-04-24 15:09 | 46.93608 | 16.75499 | 33404 ft | 481 kts | 166° |
| 2026-04-24 15:09 | 46.90348 | 16.76491 | 33964 ft | 481 kts | 166° |
| 2026-04-24 15:09 | 46.87036 | 16.77498 | 34471 ft | 481 kts | 166° |
| 2026-04-24 15:10 | 46.83783 | 16.78485 | 34976 ft | 481 kts | 166° |
| 2026-04-24 15:10 | 46.80466 | 16.79488 | 35504 ft | 480 kts | 166° |
| 2026-04-24 15:10 | 46.77188 | 16.80468 | 36007 ft | 480 kts | 166° |
| 2026-04-24 15:10 | 46.74009 | 16.81419 | 36528 ft | 479 kts | 166° |
| 2026-04-24 15:11 | 46.70747 | 16.82395 | 36930 ft | 479 kts | 166° |
| 2026-04-24 15:11 | 46.64176 | 16.84367 | 37041 ft | 479 kts | 166° |
| 2026-04-24 15:12 | 46.57684 | 16.86300 | 37030 ft | 479 kts | 166° |
| 2026-04-24 15:12 | 46.47907 | 16.89207 | 37042 ft | 478 kts | 165° |
| 2026-04-24 15:13 | 46.41378 | 16.91151 | 37039 ft | 478 kts | 165° |
| 2026-04-24 15:13 | 46.34881 | 16.93074 | 37044 ft | 478 kts | 165° |
| 2026-04-24 15:14 | 46.28370 | 16.94993 | 37055 ft | 478 kts | 165° |
| 2026-04-24 15:14 | 46.21866 | 16.96867 | 37055 ft | 479 kts | 166° |
| 2026-04-24 15:15 | 46.15250 | 16.98444 | 37068 ft | 479 kts | 168° |
| 2026-04-24 15:15 | 46.08699 | 16.99839 | 37066 ft | 479 kts | 168° |
| 2026-04-24 15:16 | 46.02058 | 17.01293 | 37066 ft | 479 kts | 168° |
| 2026-04-24 15:16 | 45.95530 | 17.02802 | 37065 ft | 478 kts | 167° |
| 2026-04-24 15:17 | 45.88973 | 17.04332 | 37061 ft | 477 kts | 167° |
| 2026-04-24 15:17 | 45.82402 | 17.05838 | 37069 ft | 477 kts | 168° |
| 2026-04-24 15:18 | 45.75847 | 17.07319 | 37072 ft | 476 kts | 168° |
| 2026-04-24 15:18 | 45.69335 | 17.08790 | 37089 ft | 476 kts | 168° |
| 2026-04-24 15:19 | 45.62800 | 17.10272 | 37076 ft | 475 kts | 167° |
| 2026-04-24 15:19 | 45.56336 | 17.11745 | 37074 ft | 474 kts | 167° |
| 2026-04-24 15:20 | 45.49768 | 17.13224 | 37073 ft | 474 kts | 168° |
| 2026-04-24 15:20 | 45.43243 | 17.14674 | 37074 ft | 474 kts | 168° |
| 2026-04-24 15:21 | 45.36737 | 17.16124 | 37069 ft | 474 kts | 168° |
| 2026-04-24 15:21 | 45.30226 | 17.17588 | 37071 ft | 474 kts | 168° |
| 2026-04-24 15:22 | 45.23745 | 17.19040 | 37070 ft | 473 kts | 168° |
| 2026-04-24 15:23 | 45.13993 | 17.21203 | 37079 ft | 472 kts | 168° |
| 2026-04-24 15:23 | 45.04248 | 17.23368 | 37071 ft | 471 kts | 168° |
| 2026-04-24 15:25 | 44.89155 | 17.26710 | 37075 ft | 470 kts | 168° |
| 2026-04-24 15:26 | 44.71928 | 17.30471 | 37092 ft | 469 kts | 168° |
| 2026-04-24 15:27 | 44.52618 | 17.34710 | 37084 ft | 469 kts | 168° |
| 2026-04-24 15:29 | 44.33279 | 17.38876 | 37082 ft | 468 kts | 168° |
| 2026-04-24 15:31 | 44.10829 | 17.43721 | 37078 ft | 467 kts | 168° |
| 2026-04-24 15:33 | 43.85239 | 17.49170 | 37068 ft | 465 kts | 168° |
| 2026-04-24 15:34 | 43.69219 | 17.52564 | 37064 ft | 465 kts | 168° |
| 2026-04-24 15:35 | 43.53264 | 17.55939 | 37060 ft | 464 kts | 168° |
| 2026-04-24 15:36 | 43.46928 | 17.57271 | 37050 ft | 464 kts | 168° |
| 2026-04-24 15:36 | 43.37433 | 17.59261 | 37045 ft | 464 kts | 168° |
| 2026-04-24 15:37 | 43.31055 | 17.60596 | 37042 ft | 464 kts | 168° |
| 2026-04-24 15:37 | 43.24653 | 17.61922 | 36124 ft | 461 kts | 168° |
| 2026-04-24 15:38 | 43.21479 | 17.62577 | 35325 ft | 461 kts | 167° |
| 2026-04-24 15:38 | 43.18295 | 17.63237 | 34505 ft | 462 kts | 167° |
| 2026-04-24 15:38 | 43.15143 | 17.63891 | 33633 ft | 462 kts | 167° |
| 2026-04-24 15:38 | 43.11949 | 17.64551 | 32645 ft | 463 kts | 168° |
| 2026-04-24 15:39 | 43.08719 | 17.64912 | 31591 ft | 469 kts | 176° |
| 2026-04-24 15:39 | 43.05453 | 17.64583 | 30522 ft | 475 kts | 186° |
| 2026-04-24 15:39 | 43.02258 | 17.63535 | 29308 ft | 480 kts | 196° |
| 2026-04-24 15:39 | 42.99184 | 17.61769 | 27937 ft | 486 kts | 206° |
| 2026-04-24 15:40 | 42.96295 | 17.59342 | 26768 ft | 486 kts | 212° |
| 2026-04-24 15:40 | 42.93440 | 17.56819 | 25820 ft | 480 kts | 211° |
| 2026-04-24 15:40 | 42.90671 | 17.54422 | 24929 ft | 474 kts | 210° |
| 2026-04-24 15:40 | 42.87847 | 17.52176 | 24690 ft | 454 kts | 208° |
| 2026-04-24 15:41 | 42.85121 | 17.50190 | 24568 ft | 434 kts | 206° |
| 2026-04-24 15:41 | 42.82487 | 17.48373 | 24080 ft | 428 kts | 204° |
| 2026-04-24 15:41 | 42.79687 | 17.47053 | 23108 ft | 427 kts | 186° |
| 2026-04-24 15:41 | 42.76788 | 17.47211 | 22097 ft | 407 kts | 161° |
| 2026-04-24 15:42 | 42.74364 | 17.48806 | 21336 ft | 380 kts | 137° |
| 2026-04-24 15:42 | 42.72687 | 17.51389 | 20604 ft | 355 kts | 116° |
| 2026-04-24 15:42 | 42.71559 | 17.54333 | 19891 ft | 341 kts | 113° |
| 2026-04-24 15:42 | 42.70491 | 17.57124 | 19197 ft | 331 kts | 114° |
| 2026-04-24 15:43 | 42.69425 | 17.59861 | 18522 ft | 325 kts | 114° |
| 2026-04-24 15:43 | 42.68367 | 17.62562 | 17774 ft | 322 kts | 114° |
| 2026-04-24 15:43 | 42.67324 | 17.65224 | 17009 ft | 318 kts | 114° |
| 2026-04-24 15:43 | 42.66278 | 17.67905 | 16272 ft | 325 kts | 114° |
| 2026-04-24 15:44 | 42.65214 | 17.70634 | 15576 ft | 323 kts | 115° |
| 2026-04-24 15:44 | 42.64169 | 17.73297 | 14914 ft | 314 kts | 114° |
| 2026-04-24 15:44 | 42.63154 | 17.75879 | 14275 ft | 308 kts | 115° |
| 2026-04-24 15:44 | 42.62143 | 17.78453 | 13604 ft | 303 kts | 115° |
| 2026-04-24 15:45 | 42.61169 | 17.80942 | 12902 ft | 300 kts | 115° |
| 2026-04-24 15:45 | 42.60210 | 17.83394 | 12218 ft | 296 kts | 115° |
| 2026-04-24 15:45 | 42.59240 | 17.85878 | 11534 ft | 298 kts | 114° |
| 2026-04-24 15:45 | 42.58287 | 17.88321 | 10886 ft | 304 kts | 115° |
| 2026-04-24 15:46 | 42.57297 | 17.90853 | 10234 ft | 309 kts | 115° |
| 2026-04-24 15:46 | 42.56266 | 17.93479 | 9541 ft | 313 kts | 114° |
| 2026-04-24 15:46 | 42.55231 | 17.96104 | 8828 ft | 316 kts | 115° |
| 2026-04-24 15:46 | 42.54195 | 17.98733 | 8144 ft | 318 kts | 114° |
| 2026-04-24 15:47 | 42.53155 | 18.01377 | 7469 ft | 319 kts | 115° |
| 2026-04-24 15:47 | 42.52114 | 18.04019 | 6805 ft | 319 kts | 115° |
| 2026-04-24 15:47 | 42.51398 | 18.05830 | 6362 ft | 319 kts | 115° |
| 2026-04-24 15:47 | 42.50014 | 18.09328 | 5435 ft | 319 kts | 116° |
| 2026-04-24 15:48 | 42.49305 | 18.11121 | 4991 ft | 318 kts | 114° |
| 2026-04-24 15:48 | 42.48285 | 18.13701 | 4326 ft | 318 kts | 115° |
| 2026-04-24 15:48 | 42.47255 | 18.16298 | 4051 ft | 305 kts | 115° |
| 2026-04-24 15:48 | 42.46274 | 18.18764 | 3994 ft | 286 kts | 115° |
| 2026-04-24 15:49 | 42.45343 | 18.21108 | 4013 ft | 275 kts | 114° |
| 2026-04-24 15:49 | 42.44451 | 18.23361 | 4002 ft | 274 kts | 114° |
| 2026-04-24 15:49 | 42.43564 | 18.25601 | 4002 ft | 263 kts | 114° |
| 2026-04-24 15:49 | 42.42720 | 18.27721 | 4011 ft | 247 kts | 115° |
| 2026-04-24 15:50 | 42.41938 | 18.29680 | 3999 ft | 231 kts | 114° |
| 2026-04-24 15:50 | 42.41206 | 18.31513 | 4010 ft | 215 kts | 114° |
| 2026-04-24 15:50 | 42.40519 | 18.33235 | 4000 ft | 200 kts | 113° |
| 2026-04-24 15:50 | 42.39868 | 18.34863 | 3995 ft | 194 kts | 112° |
| 2026-04-24 15:51 | 42.39368 | 18.36524 | 3958 ft | 188 kts | 97° |
| 2026-04-24 15:51 | 42.39322 | 18.38259 | 3967 ft | 180 kts | 76° |
| 2026-04-24 15:51 | 42.39715 | 18.39835 | 4056 ft | 176 kts | 57° |
| 2026-04-24 15:51 | 42.40424 | 18.41161 | 4114 ft | 172 kts | 40° |
| 2026-04-24 15:52 | 42.41342 | 18.42164 | 4090 ft | 167 kts | 28° |
| 2026-04-24 15:52 | 42.42373 | 18.42811 | 3939 ft | 160 kts | 16° |
| 2026-04-24 15:52 | 42.43427 | 18.43156 | 3759 ft | 150 kts | 6° |
| 2026-04-24 15:52 | 42.44420 | 18.43238 | 3631 ft | 137 kts | 356° |
| 2026-04-24 15:53 | 42.45345 | 18.43097 | 3362 ft | 136 kts | 348° |
| 2026-04-24 15:53 | 42.46264 | 18.42833 | 3048 ft | 132 kts | 345° |
| 2026-04-24 15:53 | 42.47111 | 18.42472 | 2994 ft | 123 kts | 342° |
| 2026-04-24 15:53 | 42.47877 | 18.42123 | 2847 ft | 115 kts | 338° |
| 2026-04-24 15:54 | 42.48595 | 18.41676 | 2626 ft | 111 kts | 330° |
| 2026-04-24 15:54 | 42.49242 | 18.41079 | 2583 ft | 113 kts | 323° |
| 2026-04-24 15:54 | 42.49811 | 18.40331 | 2387 ft | 113 kts | 313° |
| 2026-04-24 15:54 | 42.50316 | 18.39511 | 2255 ft | 112 kts | 309° |
| 2026-04-24 15:55 | 42.50784 | 18.38670 | 2109 ft | 112 kts | 308° |
| 2026-04-24 15:55 | 42.51237 | 18.37829 | 1895 ft | 110 kts | 309° |
| 2026-04-24 15:55 | 42.51700 | 18.37021 | 1695 ft | 108 kts | 310° |
| 2026-04-24 15:55 | 42.52172 | 18.36211 | 1552 ft | 109 kts | 308° |
| 2026-04-24 15:56 | 42.52608 | 18.35382 | 1427 ft | 110 kts | 305° |
| 2026-04-24 15:56 | 42.53021 | 18.34487 | 1310 ft | 111 kts | 302° |
| 2026-04-24 15:56 | 42.53412 | 18.33590 | 1250 ft | 112 kts | 301° |
| 2026-04-24 15:56 | 42.53792 | 18.32695 | 1159 ft | 110 kts | 299° |
| 2026-04-24 15:57 | 42.54172 | 18.31783 | 1054 ft | 109 kts | 298° |
| 2026-04-24 15:57 | 42.54530 | 18.30870 | 1003 ft | 111 kts | 298° |
| 2026-04-24 15:57 | 42.54892 | 18.29956 | 852 ft | 108 kts | 298° |
| 2026-04-24 15:57 | 42.55249 | 18.29070 | 714 ft | 109 kts | 298° |
| 2026-04-24 15:58 | 42.55610 | 18.28172 | 540 ft | 108 kts | 297° |
| 2026-04-24 15:58 | 42.55929 | 18.27371 | 512 ft | 79 kts | 296° |
| 2026-04-24 15:58 | 42.56101 | 18.26909 | 520 ft | 33 kts | 298° |
| 2026-04-24 15:58 | 42.56169 | 18.26734 | 520 ft | 18 kts | 287° |
| 2026-04-24 15:59 | 42.56142 | 18.26578 | 521 ft | 20 kts | 238° |
| 2026-04-24 15:59 | 42.56103 | 18.26454 | 521 ft | 14 kts | 271° |
| 2026-04-24 15:59 | 42.56142 | 18.26341 | 522 ft | 8 kts | 298° |
| 2026-04-24 15:59 | 42.56147 | 18.26288 | 522 ft | 3 kts | 230° |
| 2026-04-24 16:00 | 42.56133 | 18.26270 | 523 ft | 5 kts | 219° |
| 2026-04-24 16:00 | 42.56106 | 18.26250 | 523 ft | 0 kts | 207° |